Disclaimer

Please do not use the information listed here in-flight or in-navigation, as they are not provided to us by the airports but are provided by volunteers, so they might be outdated.

Search


Regions


Airport information page

Radio informations:
LIBRES TWR/APP - 120.3 MHz

Airport informations:
Latitude: 29° 41' 21.93" S
Longitude: 057° 09' 07.48" W
Elevation: 230 feet - 70 meters
Operating hours: Remarks
Operating agency: Civil government, landing fees and diplomatic clearance may be required
Timezone: UTC-3
Fuel: Unknown fuel type or whether there is any fuel.

Runway information:
18/36 - 7414 x 147 feet< - >2260 x 45 meters

Recent METARs:
SARL 190700Z 14006KT CAVOK 14/09 Q1019
SARL 190700Z 14006KT CAVOK 14/09 Q1019
SARL 190800Z 09004KT CAVOK 13/09 Q1019

Airport on the map: